Weather Underground History

Daily Summary for November 20, 2018 Units:  Metric    English   Both
« Previous Day
Next Day »
Daily Weekly Monthly Yearly Custom
  Current: High: Low: Average:
Temperature: 2.6 °C 5.1 °C 2.6 °C 3.9 °C
Dew Point: 1.6 °C 3.6 °C 1.6 °C 2.6 °C
Humidity: 93% 93% 87% 91%
Wind Speed: 4.8km/h 22.5km/h 0km/h 7.2km/h
Wind Gust: 8km/h 33.8km/h - -
WindENE - - ENE
Pressure: 1006.7 hPa 1018.2 hPa 1006.7 hPa -
Precipitation: 5.08 mm      
Historical Graphs
 
 
Tabular Data for November 20, 2018
Time Temperature Dew Point Pressure Wind Wind Speed Wind Gust Humidity Rainfall Rate (Hourly) solar
00:04 4.4 °C 2.6 °C 1018.2 hPa NE 6.4 km/h 9.7 km/h 88% 0 mm 0.00 W/m2
00:09 4.4 °C 2.6 °C 1018.2 hPa NE 4.8 km/h 6.4 km/h 88% 0 mm 0.00 W/m2
00:14 4.5 °C 2.7 °C 1018.2 hPa ESE 8 km/h 12.9 km/h 88% 0 mm 0.00 W/m2
00:19 4.5 °C 2.7 °C 1018.2 hPa East 6.4 km/h 14.5 km/h 88% 0 mm 0.00 W/m2
00:24 4.4 °C 2.8 °C 1018.2 hPa East 6.4 km/h 12.9 km/h 89% 1.27 mm 0.00 W/m2
00:29 4.3 °C 2.7 °C 1017.8 hPa NE 8 km/h 9.7 km/h 89% 4.57 mm 0.00 W/m2
00:34 4.2 °C 2.6 °C 1017.5 hPa NE 11.3 km/h 11.3 km/h 89% 1.52 mm 0.00 W/m2
00:39 4.2 °C 2.5 °C 1017.5 hPa NE 9.7 km/h 14.5 km/h 89% 1.02 mm 0.00 W/m2
00:44 4.1 °C 2.4 °C 1017.5 hPa ENE 4.8 km/h 11.3 km/h 89% 0 mm 0.00 W/m2
00:49 4 °C 2.3 °C 1017.5 hPa ENE 4.8 km/h 9.7 km/h 89% 0 mm 0.00 W/m2
00:54 3.9 °C 2.4 °C 1017.5 hPa NE 4.8 km/h 11.3 km/h 90% 0 mm 0.00 W/m2
00:59 3.8 °C 2.3 °C 1017.2 hPa ENE 6.4 km/h 6.4 km/h 90% 0 mm 0.00 W/m2
01:04 3.8 °C 2.3 °C 1017.2 hPa ENE 3.2 km/h 6.4 km/h 90% 0 mm 0.00 W/m2
01:09 3.8 °C 2.3 °C 1017.2 hPa East 8 km/h 9.7 km/h 90% 0 mm 0.00 W/m2
01:14 3.8 °C 2.3 °C 1017.2 hPa ENE 6.4 km/h 16.1 km/h 90% 0 mm 0.00 W/m2
01:19 4 °C 2.5 °C 1017.2 hPa East 9.7 km/h 20.9 km/h 90% 0 mm 0.00 W/m2
01:24 4.2 °C 2.5 °C 1016.8 hPa NE 8 km/h 33.8 km/h 89% 0 mm 0.00 W/m2
01:29 4.2 °C 2.6 °C 1016.8 hPa NE 6.4 km/h 17.7 km/h 89% 0 mm 0.00 W/m2
01:34 4.2 °C 2.5 °C 1016.8 hPa ENE 8 km/h 20.9 km/h 89% 0 mm 0.00 W/m2
01:39 4.2 °C 2.5 °C 1016.8 hPa East 8 km/h 17.7 km/h 89% 0 mm 0.00 W/m2
01:44 4.1 °C 2.4 °C 1016.8 hPa ENE 1.6 km/h 9.7 km/h 89% 0 mm 0.00 W/m2
01:49 4.1 °C 2.4 °C 1016.8 hPa ENE 6.4 km/h 12.9 km/h 89% 0 mm 0.00 W/m2
01:54 4 °C 2.3 °C 1016.8 hPa NNE 3.2 km/h 8 km/h 89% 0 mm 0.00 W/m2
01:59 4 °C 2.3 °C 1016.8 hPa NE 3.2 km/h 9.7 km/h 89% 0 mm 0.00 W/m2
02:04 4 °C 2.5 °C 1017.2 hPa East 9.7 km/h 19.3 km/h 90% 0 mm 0.00 W/m2
02:09 4.1 °C 2.6 °C 1016.8 hPa ENE 9.7 km/h 19.3 km/h 90% 0 mm 0.00 W/m2
02:14 4.1 °C 2.6 °C 1016.8 hPa NE 6.4 km/h 20.9 km/h 90% 0 mm 0.00 W/m2
02:19 4 °C 2.5 °C 1016.5 hPa East 3.2 km/h 11.3 km/h 90% 0 mm 0.00 W/m2
02:24 3.9 °C 2.4 °C 1016.5 hPa NE 9.7 km/h 17.7 km/h 90% 0 mm 0.00 W/m2
02:29 3.8 °C 2.3 °C 1016.5 hPa NE 8 km/h 9.7 km/h 90% 0 mm 0.00 W/m2
02:34 3.8 °C 2.3 °C 1016.5 hPa ENE 4.8 km/h 11.3 km/h 90% 0 mm 0.00 W/m2
02:39 3.7 °C 2.2 °C 1016.5 hPa NE 4.8 km/h 8 km/h 90% 0 mm 0.00 W/m2
02:44 3.7 °C 2.4 °C 1016.1 hPa ENE 1.6 km/h 6.4 km/h 91% 0 mm 0.00 W/m2
02:49 3.7 °C 2.4 °C 1016.1 hPa NE 6.4 km/h 8 km/h 91% 0 mm 0.00 W/m2
02:54 3.7 °C 2.4 °C 1016.1 hPa ENE 1.6 km/h 8 km/h 91% 0 mm 0.00 W/m2
02:59 3.7 °C 2.4 °C 1016.1 hPa NE 1.6 km/h 16.1 km/h 91% 0 mm 0.00 W/m2
03:04 3.7 °C 2.4 °C 1016.1 hPa East 3.2 km/h 11.3 km/h 91% 0 mm 0.00 W/m2
03:09 3.8 °C 2.4 °C 1016.1 hPa NNE 1.6 km/h 14.5 km/h 91% 0 mm 0.00 W/m2
03:14 3.8 °C 2.5 °C 1015.8 hPa NE 1.6 km/h 14.5 km/h 91% 0 mm 0.00 W/m2
03:19 3.8 °C 2.5 °C 1015.8 hPa NE 9.7 km/h 12.9 km/h 91% 0 mm 0.00 W/m2
03:24 3.9 °C 2.6 °C 1015.8 hPa Calm   12.9 km/h 91% 0 mm 0.00 W/m2
03:29 3.9 °C 2.6 °C 1015.8 hPa NE 8 km/h 14.5 km/h 91% 0 mm 0.00 W/m2
03:34 3.9 °C 2.6 °C 1015.5 hPa ENE 12.9 km/h 12.9 km/h 91% 0 mm 0.00 W/m2
03:39 3.9 °C 2.6 °C 1015.5 hPa ENE 4.8 km/h 11.3 km/h 91% 0 mm 0.00 W/m2
03:44 4 °C 2.8 °C 1015.5 hPa NE 1.6 km/h 11.3 km/h 92% 0 mm 0.00 W/m2
03:48 4 °C 2.8 °C 1015.5 hPa NE 8 km/h 9.7 km/h 92% 0 mm 0.00 W/m2
03:59 4.1 °C 2.8 °C 1015.5 hPa ESE 14.5 km/h 19.3 km/h 91% 0 mm 0.00 W/m2
04:04 4.1 °C 2.7 °C 1015.5 hPa NE 9.7 km/h 16.1 km/h 91% 0 mm 0.00 W/m2
04:09 4.1 °C 2.7 °C 1015.5 hPa East 8 km/h 17.7 km/h 91% 0 mm 0.00 W/m2
04:14 4 °C 2.7 °C 1015.5 hPa ENE 1.6 km/h 12.9 km/h 91% 0 mm 0.00 W/m2
04:19 4 °C 2.7 °C 1015.5 hPa NE 4.8 km/h 12.9 km/h 91% 0 mm 0.00 W/m2
04:24 4 °C 2.7 °C 1015.1 hPa ENE 3.2 km/h 12.9 km/h 91% 0 mm 0.00 W/m2
04:29 4 °C 2.7 °C 1015.1 hPa NE 9.7 km/h 9.7 km/h 91% 0 mm 0.00 W/m2
04:34 4 °C 2.7 °C 1015.1 hPa ENE 3.2 km/h 11.3 km/h 91% 0 mm 0.00 W/m2
04:39 3.9 °C 2.6 °C 1015.1 hPa NE 6.4 km/h 17.7 km/h 91% 0 mm 0.00 W/m2
04:44 3.9 °C 2.6 °C 1014.8 hPa NE 12.9 km/h 17.7 km/h 91% 0 mm 0.00 W/m2
04:49 3.8 °C 2.5 °C 1014.8 hPa NE 4.8 km/h 12.9 km/h 91% 0 mm 0.00 W/m2
04:54 3.8 °C 2.5 °C 1014.8 hPa NE 4.8 km/h 11.3 km/h 91% 0 mm 0.00 W/m2
04:59 3.8 °C 2.4 °C 1015.1 hPa NE 3.2 km/h 16.1 km/h 91% 0 mm 0.00 W/m2
05:05 3.8 °C 2.4 °C 1014.8 hPa NE 4.8 km/h 11.3 km/h 91% 0 mm 0.00 W/m2
05:09 3.8 °C 2.4 °C 1014.8 hPa NE 8 km/h 12.9 km/h 91% 0 mm 0.00 W/m2
05:14 3.8 °C 2.4 °C 1014.8 hPa NE 3.2 km/h 12.9 km/h 91% 0 mm 0.00 W/m2
05:19 3.8 °C 2.4 °C 1014.8 hPa NE 3.2 km/h 6.4 km/h 91% 0 mm 0.00 W/m2
05:24 3.8 °C 2.5 °C 1014.4 hPa ENE 6.4 km/h 11.3 km/h 91% 0 mm 0.00 W/m2
05:29 3.9 °C 2.6 °C 1014.4 hPa ENE 4.8 km/h 8 km/h 91% 0 mm 0.00 W/m2
05:34 3.9 °C 2.6 °C 1014.4 hPa ENE 3.2 km/h 8 km/h 91% 0 mm 0.00 W/m2
05:39 3.9 °C 2.6 °C 1014.8 hPa ENE 8 km/h 9.7 km/h 91% 0 mm 0.00 W/m2
05:44 3.9 °C 2.6 °C 1014.4 hPa ENE 4.8 km/h 9.7 km/h 91% 0 mm 0.00 W/m2
05:49 3.9 °C 2.6 °C 1014.8 hPa NE 11.3 km/h 11.3 km/h 91% 0 mm 0.00 W/m2
05:54 3.9 °C 2.6 °C 1014.4 hPa NNE 9.7 km/h 17.7 km/h 91% 0 mm 0.00 W/m2
05:59 3.9 °C 2.6 °C 1014.4 hPa NNE 16.1 km/h 16.1 km/h 91% 0 mm 0.00 W/m2
06:04 3.9 °C 2.6 °C 1014.4 hPa ENE 4.8 km/h 11.3 km/h 91% 0 mm 0.00 W/m2
06:09 3.8 °C 2.5 °C 1014.4 hPa East 8 km/h 9.7 km/h 91% 0 mm 0.00 W/m2
06:14 3.8 °C 2.4 °C 1014.4 hPa ENE 6.4 km/h 9.7 km/h 91% 0 mm 0.00 W/m2
06:19 3.8 °C 2.4 °C 1014.4 hPa NE 4.8 km/h 16.1 km/h 91% 0 mm 0.00 W/m2
06:24 3.8 °C 2.4 °C 1014.4 hPa NE 12.9 km/h 17.7 km/h 91% 0 mm 0.00 W/m2
06:29 3.7 °C 2.4 °C 1014.1 hPa NE 4.8 km/h 16.1 km/h 91% 0 mm 0.00 W/m2
06:34 3.7 °C 2.3 °C 1014.1 hPa ENE 4.8 km/h 14.5 km/h 91% 0 mm 0.00 W/m2
06:39 3.6 °C 2.3 °C 1014.1 hPa NE 4.8 km/h 8 km/h 91% 0 mm 0.00 W/m2
06:44 3.7 °C 2.3 °C 1014.1 hPa NE 6.4 km/h 16.1 km/h 91% 0 mm 0.00 W/m2
06:49 3.7 °C 2.4 °C 1014.1 hPa NE 4.8 km/h 16.1 km/h 91% 0 mm 0.00 W/m2
06:54 3.8 °C 2.4 °C 1014.4 hPa ENE 3.2 km/h 12.9 km/h 91% 0 mm 0.00 W/m2
06:59 3.8 °C 2.4 °C 1014.1 hPa East 3.2 km/h 9.7 km/h 91% 0 mm 0.00 W/m2
07:04 3.8 °C 2.5 °C 1014.1 hPa NE 4.8 km/h 9.7 km/h 91% 0 mm 0.00 W/m2
07:09 3.8 °C 2.5 °C 1014.1 hPa East 3.2 km/h 9.7 km/h 91% 0 mm 0.00 W/m2
07:14 3.8 °C 2.5 °C 1014.1 hPa ENE 6.4 km/h 12.9 km/h 91% 0 mm 0.00 W/m2
07:19 3.9 °C 2.4 °C 1014.1 hPa ENE 4.8 km/h 11.3 km/h 90% 0 mm 0.00 W/m2
07:24 3.9 °C 2.4 °C 1014.1 hPa NNE 12.9 km/h 12.9 km/h 90% 0 mm 0.00 W/m2
07:29 4 °C 2.5 °C 1014.1 hPa ENE 9.7 km/h 9.7 km/h 90% 0 mm 0.00 W/m2
07:34 4.1 °C 2.6 °C 1014.1 hPa NE 4.8 km/h 9.7 km/h 90% 0 mm 0.00 W/m2
07:39 4.1 °C 2.6 °C 1014.1 hPa ENE 8 km/h 8 km/h 90% 0 mm 0.00 W/m2
07:44 4.1 °C 2.6 °C 1014.1 hPa NNE 9.7 km/h 9.7 km/h 90% 0 mm 7.00 W/m2
07:49 4.1 °C 2.6 °C 1014.1 hPa NNE 3.2 km/h 17.7 km/h 90% 0 mm 7.00 W/m2
07:54 4.1 °C 2.6 °C 1014.1 hPa NE 8 km/h 11.3 km/h 90% 0 mm 5.00 W/m2
07:59 4.1 °C 2.6 °C 1014.1 hPa ENE 3.2 km/h 4.8 km/h 90% 0 mm 9.00 W/m2
08:04 4.1 °C 2.6 °C 1014.1 hPa NE 1.6 km/h 6.4 km/h 90% 0 mm 14.00 W/m2
08:09 4 °C 2.5 °C 1013.8 hPa NE 1.6 km/h 11.3 km/h 90% 0 mm 11.00 W/m2
08:14 4 °C 2.5 °C 1013.8 hPa NE 11.3 km/h 11.3 km/h 90% 0 mm 7.00 W/m2
08:19 4 °C 2.5 °C 1013.8 hPa ENE 1.6 km/h 11.3 km/h 90% 0 mm 7.00 W/m2
08:24 4.1 °C 2.6 °C 1013.8 hPa ENE 4.8 km/h 9.7 km/h 90% 0 mm 0.00 W/m2
08:29 4.1 °C 2.8 °C 1013.8 hPa ENE 9.7 km/h 19.3 km/h 91% 0 mm 7.00 W/m2
08:34 4.2 °C 2.8 °C 1013.8 hPa ENE 6.4 km/h 16.1 km/h 91% 0 mm 11.00 W/m2
08:39 4.2 °C 2.9 °C 1013.8 hPa ENE 8 km/h 12.9 km/h 91% 0 mm 12.00 W/m2
08:44 4.3 °C 2.9 °C 1013.8 hPa Calm   8 km/h 91% 0 mm 19.00 W/m2
08:49 4.3 °C 2.9 °C 1013.8 hPa ENE 4.8 km/h 12.9 km/h 91% 0 mm 19.00 W/m2
08:54 4.3 °C 2.8 °C 1013.4 hPa ENE 6.4 km/h 20.9 km/h 90% 0 mm 25.00 W/m2
08:59 4.3 °C 3 °C 1013.4 hPa NE 8 km/h 12.9 km/h 91% 0 mm 30.00 W/m2
09:04 4.3 °C 3 °C 1013.4 hPa East 11.3 km/h 14.5 km/h 91% 0 mm 42.00 W/m2
09:09 4.3 °C 2.9 °C 1013.4 hPa NE 9.7 km/h 16.1 km/h 91% 0 mm 49.00 W/m2
09:14 4.3 °C 2.9 °C 1013.1 hPa ENE 6.4 km/h 6.4 km/h 91% 0 mm 65.00 W/m2
09:19 4.3 °C 3 °C 1013.1 hPa ENE 8 km/h 8 km/h 91% 0 mm 67.00 W/m2
09:24 4.3 °C 3 °C 1013.1 hPa ENE 6.4 km/h 9.7 km/h 91% 0 mm 81.00 W/m2
09:29 4.3 °C 3 °C 1012.8 hPa East 6.4 km/h 8 km/h 91% 0 mm 95.00 W/m2
09:34 4.4 °C 3.1 °C 1012.8 hPa ENE 8 km/h 8 km/h 91% 0 mm 84.00 W/m2
09:39 4.4 °C 3.1 °C 1012.8 hPa NNE 8 km/h 12.9 km/h 91% 0 mm 81.00 W/m2
09:44 4.5 °C 3.2 °C 1012.8 hPa East 6.4 km/h 16.1 km/h 91% 0 mm 58.00 W/m2
09:49 4.5 °C 3.2 °C 1012.8 hPa NNE 19.3 km/h 19.3 km/h 91% 0 mm 76.00 W/m2
09:54 4.6 °C 3.2 °C 1012.8 hPa NE 4.8 km/h 16.1 km/h 91% 0 mm 67.00 W/m2
09:59 4.4 °C 3.1 °C 1012.8 hPa ENE 6.4 km/h 16.1 km/h 91% 0 mm 54.00 W/m2
10:04 4.4 °C 2.9 °C 1012.8 hPa NE 6.4 km/h 11.3 km/h 90% 0 mm 53.00 W/m2
10:09 4.4 °C 3.1 °C 1012.8 hPa ENE 9.7 km/h 20.9 km/h 91% 0 mm 74.00 W/m2
10:14 4.4 °C 3.1 °C 1012.8 hPa Calm   9.7 km/h 91% 0 mm 58.00 W/m2
10:19 4.5 °C 3.2 °C 1012.4 hPa ENE 11.3 km/h 17.7 km/h 91% 0 mm 44.00 W/m2
10:24 4.6 °C 3.2 °C 1012.4 hPa NE 3.2 km/h 12.9 km/h 91% 0 mm 49.00 W/m2
10:29 4.6 °C 3.3 °C 1012.4 hPa NE 14.5 km/h 24.1 km/h 91% 0 mm 79.00 W/m2
10:34 4.7 °C 3.3 °C 1012.1 hPa ENE 3.2 km/h 16.1 km/h 91% 0 mm 178.00 W/m2
10:39 4.8 °C 3.4 °C 1012.1 hPa ENE 11.3 km/h 19.3 km/h 91% 0 mm 120.00 W/m2
10:44 4.9 °C 3.4 °C 1012.1 hPa ENE 6.4 km/h 19.3 km/h 90% 0 mm 132.00 W/m2
10:49 5 °C 3.5 °C 1012.1 hPa East 11.3 km/h 11.3 km/h 90% 0 mm 102.00 W/m2
10:54 5 °C 3.5 °C 1011.7 hPa NE 6.4 km/h 9.7 km/h 90% 0 mm 83.00 W/m2
10:59 5 °C 3.5 °C 1011.7 hPa ENE 4.8 km/h 16.1 km/h 90% 0 mm 67.00 W/m2
11:04 5.1 °C 3.6 °C 1011.7 hPa NE 6.4 km/h 14.5 km/h 90% 0 mm 49.00 W/m2
11:09 5 °C 3.5 °C 1011.4 hPa ENE 4.8 km/h 11.3 km/h 90% 0 mm 33.00 W/m2
11:14 5 °C 3.5 °C 1011.4 hPa NNW 1.6 km/h 8 km/h 90% 0 mm 49.00 W/m2
11:19 4.9 °C 3.4 °C 1011.4 hPa ENE 12.9 km/h 12.9 km/h 90% 0 mm 30.00 W/m2
11:24 4.9 °C 3.4 °C 1011.4 hPa NE 12.9 km/h 12.9 km/h 90% 0 mm 33.00 W/m2
11:29 4.9 °C 3.4 °C 1011.1 hPa NE 1.6 km/h 12.9 km/h 90% 0 mm 47.00 W/m2
11:34 4.9 °C 3.6 °C 1011.1 hPa ENE 9.7 km/h 12.9 km/h 91% 0 mm 40.00 W/m2
11:39 4.8 °C 3.5 °C 1011.1 hPa NNE 4.8 km/h 14.5 km/h 91% 0 mm 49.00 W/m2
11:44 4.8 °C 3.4 °C 1011.1 hPa NE 9.7 km/h 17.7 km/h 91% 0 mm 40.00 W/m2
11:49 4.7 °C 3.4 °C 1011.1 hPa East 1.6 km/h 24.1 km/h 91% 0 mm 42.00 W/m2
11:54 4.7 °C 3.4 °C 1011.1 hPa ENE 8 km/h 19.3 km/h 91% 4.57 mm 32.00 W/m2
11:59 4.6 °C 3.3 °C 1010.7 hPa ENE 4.8 km/h 12.9 km/h 91% 2.03 mm 42.00 W/m2
12:04 4.6 °C 3.2 °C 1010.7 hPa ENE 11.3 km/h 12.9 km/h 91% 1.02 mm 35.00 W/m2
12:09 4.5 °C 3.2 °C 1010.7 hPa ENE 9.7 km/h 19.3 km/h 91% 1.02 mm 26.00 W/m2
12:14 4.4 °C 3.1 °C 1010.4 hPa ENE 1.6 km/h 11.3 km/h 91% 1.52 mm 39.00 W/m2
12:19 4.4 °C 3.3 °C 1010.4 hPa ENE 4.8 km/h 14.5 km/h 92% 1.52 mm 47.00 W/m2
12:24 4.4 °C 3.3 °C 1010.4 hPa ENE 3.2 km/h 11.3 km/h 92% 1.02 mm 44.00 W/m2
12:29 4.5 °C 3.3 °C 1010 hPa ENE 9.7 km/h 19.3 km/h 92% 0.76 mm 39.00 W/m2
12:34 4.4 °C 3.3 °C 1010 hPa East 6.4 km/h 17.7 km/h 92% 0 mm 44.00 W/m2
12:39 4.4 °C 3.3 °C 1010 hPa East 9.7 km/h 20.9 km/h 92% 0 mm 49.00 W/m2
12:44 4.5 °C 3.3 °C 1009.7 hPa ESE 9.7 km/h 20.9 km/h 92% 0 mm 56.00 W/m2
12:49 4.5 °C 3.3 °C 1009.7 hPa East 8 km/h 11.3 km/h 92% 0 mm 42.00 W/m2
12:54 4.5 °C 3.3 °C 1009.7 hPa ESE 3.2 km/h 16.1 km/h 92% 0 mm 30.00 W/m2
12:59 4.5 °C 3.3 °C 1009.7 hPa ENE 4.8 km/h 16.1 km/h 92% 0 mm 49.00 W/m2
13:04 4.6 °C 3.4 °C 1009.7 hPa ENE 6.4 km/h 11.3 km/h 92% 0 mm 42.00 W/m2
13:09 4.6 °C 3.4 °C 1009.7 hPa ENE 6.4 km/h 17.7 km/h 92% 0 mm 37.00 W/m2
13:14 4.6 °C 3.4 °C 1009.7 hPa East 12.9 km/h 16.1 km/h 92% 1.52 mm 37.00 W/m2
13:19 4.5 °C 3.3 °C 1009.7 hPa East 11.3 km/h 14.5 km/h 92% 1.52 mm 35.00 W/m2
13:24 4.5 °C 3.3 °C 1009.7 hPa East 12.9 km/h 19.3 km/h 92% 1.02 mm 23.00 W/m2
13:29 4.5 °C 3.3 °C 1009.4 hPa East 6.4 km/h 16.1 km/h 92% 0 mm 26.00 W/m2
13:34 4.5 °C 3.3 °C 1009.4 hPa ENE 8 km/h 17.7 km/h 92% 0 mm 32.00 W/m2
13:39 4.5 °C 3.3 °C 1009.4 hPa East 6.4 km/h 12.9 km/h 92% 0 mm 33.00 W/m2
13:44 4.5 °C 3.3 °C 1009 hPa ENE 6.4 km/h 16.1 km/h 92% 0 mm 33.00 W/m2
13:49 4.5 °C 3.3 °C 1009 hPa East 9.7 km/h 11.3 km/h 92% 0 mm 37.00 W/m2
13:54 4.5 °C 3.3 °C 1009 hPa ENE 4.8 km/h 12.9 km/h 92% 0 mm 35.00 W/m2
13:59 4.6 °C 3.4 °C 1009 hPa ENE 8 km/h 12.9 km/h 92% 0 mm 46.00 W/m2
14:04 4.6 °C 3.4 °C 1009 hPa ENE 12.9 km/h 16.1 km/h 92% 0 mm 40.00 W/m2
14:09 4.6 °C 3.4 °C 1008.7 hPa East 11.3 km/h 12.9 km/h 92% 0 mm 49.00 W/m2
14:14 4.6 °C 3.4 °C 1009 hPa NE 3.2 km/h 19.3 km/h 92% 0 mm 25.00 W/m2
14:19 4.6 °C 3.4 °C 1009 hPa ENE 8 km/h 12.9 km/h 92% 0 mm 18.00 W/m2
14:24 4.6 °C 3.4 °C 1008.7 hPa ENE 20.9 km/h 22.5 km/h 92% 0 mm 25.00 W/m2
14:29 4.6 °C 3.4 °C 1008.7 hPa East 8 km/h 17.7 km/h 92% 0 mm 19.00 W/m2
14:34 4.5 °C 3.3 °C 1008.7 hPa NE 11.3 km/h 16.1 km/h 92% 0 mm 9.00 W/m2
14:39 4.5 °C 3.3 °C 1008.7 hPa East 8 km/h 11.3 km/h 92% 0 mm 25.00 W/m2
14:44 4.4 °C 3.3 °C 1008.7 hPa ENE 6.4 km/h 9.7 km/h 92% 0 mm 12.00 W/m2
14:49 4.4 °C 3.3 °C 1008.7 hPa East 6.4 km/h 12.9 km/h 92% 0 mm 18.00 W/m2
14:54 4.4 °C 3.3 °C 1008.4 hPa ESE 8 km/h 19.3 km/h 92% 0 mm 30.00 W/m2
14:59 4.4 °C 3.2 °C 1008.4 hPa East 8 km/h 17.7 km/h 92% 0 mm 23.00 W/m2
15:04 4.3 °C 3.2 °C 1008.7 hPa ESE 12.9 km/h 14.5 km/h 92% 0 mm 18.00 W/m2
15:09 4.3 °C 3 °C 1008.4 hPa ENE 4.8 km/h 12.9 km/h 91% 0 mm 14.00 W/m2
15:14 4.3 °C 2.9 °C 1008.4 hPa ESE 11.3 km/h 11.3 km/h 91% 0 mm 7.00 W/m2
15:19 4.3 °C 3 °C 1008.4 hPa ESE 11.3 km/h 19.3 km/h 91% 0 mm 5.00 W/m2
15:24 4.3 °C 2.9 °C 1008.7 hPa ESE 9.7 km/h 24.1 km/h 91% 0 mm 7.00 W/m2
15:29 4.2 °C 2.9 °C 1008.7 hPa East 6.4 km/h 19.3 km/h 91% 0 mm 5.00 W/m2
15:34 4.2 °C 2.7 °C 1008.4 hPa East 9.7 km/h 17.7 km/h 90% 0 mm 5.00 W/m2
15:39 4.2 °C 2.7 °C 1008.4 hPa East 8 km/h 12.9 km/h 90% 0 mm 5.00 W/m2
15:44 4.1 °C 2.6 °C 1008.4 hPa ENE 9.7 km/h 19.3 km/h 90% 0 mm 0.00 W/m2
15:49 4.1 °C 2.6 °C 1008.4 hPa East 17.7 km/h 17.7 km/h 90% 0 mm 0.00 W/m2
15:54 4.1 °C 2.6 °C 1008.7 hPa East 12.9 km/h 25.7 km/h 90% 0 mm 0.00 W/m2
15:59 4.2 °C 2.7 °C 1008.7 hPa East 6.4 km/h 17.7 km/h 90% 0 mm 0.00 W/m2
16:04 4.2 °C 2.7 °C 1008.7 hPa ESE 14.5 km/h 19.3 km/h 90% 0 mm 0.00 W/m2
16:09 4.1 °C 2.4 °C 1008.7 hPa East 9.7 km/h 20.9 km/h 89% 0 mm 0.00 W/m2
16:14 3.9 °C 2.3 °C 1008.7 hPa East 20.9 km/h 30.6 km/h 89% 0 mm 0.00 W/m2
16:19 3.8 °C 2.3 °C 1008.7 hPa East 9.7 km/h 17.7 km/h 90% 0 mm 0.00 W/m2
16:24 3.7 °C 2.2 °C 1008.7 hPa ENE 17.7 km/h 20.9 km/h 90% 0 mm 0.00 W/m2
16:29 3.7 °C 2.2 °C 1008.7 hPa East 17.7 km/h 20.9 km/h 90% 0 mm 0.00 W/m2
16:34 3.7 °C 2.2 °C 1008.7 hPa ESE 11.3 km/h 27.4 km/h 90% 0 mm 0.00 W/m2
16:39 3.6 °C 1.9 °C 1009 hPa East 9.7 km/h 22.5 km/h 89% 0 mm 0.00 W/m2
16:44 3.6 °C 1.9 °C 1009 hPa East 19.3 km/h 20.9 km/h 89% 0 mm 0.00 W/m2
16:49 3.6 °C 1.9 °C 1009 hPa ESE 11.3 km/h 20.9 km/h 89% 0 mm 0.00 W/m2
16:54 3.6 °C 1.9 °C 1008.7 hPa East 19.3 km/h 19.3 km/h 89% 0 mm 0.00 W/m2
16:59 3.7 °C 2 °C 1008.7 hPa East 11.3 km/h 17.7 km/h 89% 0 mm 0.00 W/m2
17:04 3.7 °C 2 °C 1009 hPa East 8 km/h 22.5 km/h 89% 0 mm 0.00 W/m2
17:09 3.7 °C 1.9 °C 1009 hPa NE 6.4 km/h 24.1 km/h 88% 0 mm 0.00 W/m2
17:14 3.7 °C 1.9 °C 1009 hPa East 14.5 km/h 19.3 km/h 88% 0 mm 0.00 W/m2
17:19 3.7 °C 1.8 °C 1009 hPa East 9.7 km/h 22.5 km/h 87% 0 mm 0.00 W/m2
17:24 3.8 °C 1.8 °C 1008.7 hPa East 6.4 km/h 19.3 km/h 87% 0 mm 0.00 W/m2
17:29 3.8 °C 1.8 °C 1009 hPa ESE 9.7 km/h 25.7 km/h 87% 0 mm 0.00 W/m2
17:34 3.8 °C 1.8 °C 1009 hPa ESE 14.5 km/h 14.5 km/h 87% 0 mm 0.00 W/m2
17:39 3.8 °C 1.8 °C 1009 hPa East 14.5 km/h 14.5 km/h 87% 0 mm 0.00 W/m2
17:44 3.8 °C 1.8 °C 1009 hPa ENE 16.1 km/h 24.1 km/h 87% 0 mm 0.00 W/m2
17:49 3.8 °C 1.8 °C 1009 hPa East 6.4 km/h 24.1 km/h 87% 0 mm 0.00 W/m2
17:54 3.8 °C 1.8 °C 1009 hPa East 8 km/h 24.1 km/h 87% 0 mm 0.00 W/m2
17:59 3.8 °C 1.8 °C 1009 hPa ESE 12.9 km/h 20.9 km/h 87% 0 mm 0.00 W/m2
18:04 3.8 °C 1.8 °C 1009 hPa ESE 22.5 km/h 22.5 km/h 87% 0 mm 0.00 W/m2
18:09 3.7 °C 1.8 °C 1009 hPa East 12.9 km/h 20.9 km/h 87% 0 mm 0.00 W/m2
18:14 3.7 °C 1.8 °C 1009 hPa East 12.9 km/h 12.9 km/h 87% 0 mm 0.00 W/m2
18:19 3.7 °C 1.7 °C 1009 hPa ESE 19.3 km/h 22.5 km/h 87% 0 mm 0.00 W/m2
18:24 3.7 °C 1.8 °C 1009 hPa ENE 12.9 km/h 14.5 km/h 87% 0 mm 0.00 W/m2
18:29 3.7 °C 1.7 °C 1009 hPa East 9.7 km/h 20.9 km/h 87% 0 mm 0.00 W/m2
18:34 3.7 °C 1.8 °C 1009 hPa East 8 km/h 17.7 km/h 87% 0 mm 0.00 W/m2
18:39 3.7 °C 1.7 °C 1009 hPa ESE 14.5 km/h 17.7 km/h 87% 0 mm 0.00 W/m2
18:44 3.7 °C 1.7 °C 1009 hPa East 8 km/h 14.5 km/h 87% 0 mm 0.00 W/m2
18:49 3.7 °C 1.7 °C 1009 hPa East 6.4 km/h 12.9 km/h 87% 0 mm 0.00 W/m2
18:54 3.7 °C 1.9 °C 1009 hPa NE 3.2 km/h 11.3 km/h 88% 0 mm 0.00 W/m2
18:59 3.6 °C 1.8 °C 1009 hPa East 6.4 km/h 14.5 km/h 88% 0 mm 0.00 W/m2
19:04 3.6 °C 1.8 °C 1009 hPa East 4.8 km/h 8 km/h 88% 0 mm 0.00 W/m2
19:09 3.6 °C 1.8 °C 1008.7 hPa Calm   11.3 km/h 88% 0 mm 0.00 W/m2
19:14 3.6 °C 1.8 °C 1008.7 hPa NE 1.6 km/h 6.4 km/h 88% 0 mm 0.00 W/m2
19:19 3.6 °C 1.8 °C 1008.7 hPa Calm   6.4 km/h 88% 0 mm 0.00 W/m2
19:24 3.6 °C 1.9 °C 1008.7 hPa ENE 3.2 km/h 6.4 km/h 89% 0 mm 0.00 W/m2
19:29 3.5 °C 1.7 °C 1008.7 hPa NE 3.2 km/h 8 km/h 88% 0 mm 0.00 W/m2
19:34 3.5 °C 1.9 °C 1008.7 hPa ENE 1.6 km/h 6.4 km/h 89% 0 mm 0.00 W/m2
19:39 3.6 °C 1.9 °C 1008.7 hPa ENE 4.8 km/h 6.4 km/h 89% 0 mm 0.00 W/m2
19:44 3.6 °C 1.9 °C 1008.7 hPa ENE 6.4 km/h 6.4 km/h 89% 0 mm 0.00 W/m2
19:49 3.6 °C 1.9 °C 1008.7 hPa NE 3.2 km/h 9.7 km/h 89% 0 mm 0.00 W/m2
19:54 3.6 °C 1.9 °C 1008.7 hPa Calm   3.2 km/h 89% 0 mm 0.00 W/m2
19:59 3.6 °C 1.9 °C 1008.7 hPa ENE 3.2 km/h 16.1 km/h 89% 0 mm 0.00 W/m2
20:04 3.6 °C 1.9 °C 1008.7 hPa NE 6.4 km/h 9.7 km/h 89% 0 mm 0.00 W/m2
20:09 3.6 °C 1.9 °C 1008.7 hPa NE 11.3 km/h 11.3 km/h 89% 0 mm 0.00 W/m2
20:14 3.6 °C 2.1 °C 1008.7 hPa ENE 8 km/h 9.7 km/h 90% 0 mm 0.00 W/m2
20:19 3.6 °C 2.1 °C 1008.7 hPa ENE 4.8 km/h 11.3 km/h 90% 0 mm 0.00 W/m2
20:24 3.6 °C 2.1 °C 1008.7 hPa NE 1.6 km/h 8 km/h 90% 0 mm 0.00 W/m2
20:29 3.6 °C 2.1 °C 1008.4 hPa Calm   11.3 km/h 90% 0 mm 0.00 W/m2
20:34 3.6 °C 2.1 °C 1008.4 hPa NE 6.4 km/h 11.3 km/h 90% 0 mm 0.00 W/m2
20:39 3.5 °C 2.2 °C 1008.4 hPa ENE 1.6 km/h 8 km/h 91% 0 mm 0.00 W/m2
20:44 3.5 °C 2.2 °C 1008.4 hPa ENE 6.4 km/h 12.9 km/h 91% 0 mm 0.00 W/m2
20:49 3.5 °C 2.2 °C 1008.4 hPa ENE 4.8 km/h 9.7 km/h 91% 0 mm 0.00 W/m2
20:54 3.5 °C 2.2 °C 1008.4 hPa ENE 3.2 km/h 12.9 km/h 91% 0 mm 0.00 W/m2
20:59 3.5 °C 2.2 °C 1008 hPa ENE 11.3 km/h 12.9 km/h 91% 0 mm 0.00 W/m2
21:04 3.4 °C 2.3 °C 1008 hPa ENE 6.4 km/h 19.3 km/h 92% 0 mm 0.00 W/m2
21:09 3.4 °C 2.3 °C 1008 hPa NE 6.4 km/h 9.7 km/h 92% 0 mm 0.00 W/m2
21:14 3.4 °C 2.3 °C 1008 hPa East 3.2 km/h 8 km/h 92% 0 mm 0.00 W/m2
21:19 3.4 °C 2.3 °C 1008 hPa East 4.8 km/h 6.4 km/h 92% 0 mm 0.00 W/m2
21:24 3.4 °C 2.3 °C 1007.7 hPa NNE 3.2 km/h 9.7 km/h 92% 0 mm 0.00 W/m2
21:29 3.4 °C 2.3 °C 1007.7 hPa ENE 3.2 km/h 12.9 km/h 92% 0 mm 0.00 W/m2
21:34 3.4 °C 2.3 °C 1007.7 hPa NE 4.8 km/h 17.7 km/h 92% 0 mm 0.00 W/m2
21:39 3.4 °C 2.2 °C 1007.7 hPa ENE 4.8 km/h 9.7 km/h 92% 0 mm 0.00 W/m2
21:44 3.3 °C 2.2 °C 1007.3 hPa East 6.4 km/h 14.5 km/h 92% 0 mm 0.00 W/m2
21:49 3.3 °C 2.1 °C 1007.3 hPa East 17.7 km/h 17.7 km/h 92% 0 mm 0.00 W/m2
21:54 3.3 °C 2.1 °C 1007.3 hPa ENE 4.8 km/h 9.7 km/h 92% 0 mm 0.00 W/m2
21:59 3.2 °C 2.1 °C 1007.3 hPa ENE 3.2 km/h 17.7 km/h 92% 0 mm 0.00 W/m2
22:04 3.2 °C 2.1 °C 1007.3 hPa ENE 6.4 km/h 12.9 km/h 92% 0 mm 0.00 W/m2
22:09 3.2 °C 2.1 °C 1007.3 hPa NE 4.8 km/h 11.3 km/h 92% 0 mm 0.00 W/m2
22:14 3.2 °C 2.1 °C 1007.3 hPa ENE 8 km/h 9.7 km/h 92% 0 mm 0.00 W/m2
22:19 3.2 °C 2.1 °C 1007 hPa Calm   6.4 km/h 92% 0 mm 0.00 W/m2
22:24 3.2 °C 2.1 °C 1007.3 hPa ENE 12.9 km/h 12.9 km/h 92% 3.56 mm 0.00 W/m2
22:30 3.2 °C 2.1 °C 1007.3 hPa East 6.4 km/h 17.7 km/h 92% 1.78 mm 0.00 W/m2
22:34 3.2 °C 2 °C 1007 hPa East 9.7 km/h 14.5 km/h 92% 1.27 mm 0.00 W/m2
22:39 3.1 °C 1.9 °C 1007 hPa East 9.7 km/h 11.3 km/h 92% 3.3 mm 0.00 W/m2
22:44 3.1 °C 2.1 °C 1007 hPa ENE 1.6 km/h 9.7 km/h 93% 1.52 mm 0.00 W/m2
22:49 3 °C 2 °C 1007 hPa ENE 1.6 km/h 3.2 km/h 93% 1.02 mm 0.00 W/m2
22:54 3 °C 2 °C 1007 hPa ENE 6.4 km/h 9.7 km/h 93% 1.02 mm 0.00 W/m2
22:59 3.1 °C 2.1 °C 1007 hPa ENE 6.4 km/h 11.3 km/h 93% 2.29 mm 0.00 W/m2
23:04 3 °C 2 °C 1007 hPa East 8 km/h 12.9 km/h 93% 1.27 mm 0.00 W/m2
23:09 2.9 °C 1.9 °C 1007 hPa ENE 4.8 km/h 16.1 km/h 93% 0.76 mm 0.00 W/m2
23:14 2.8 °C 1.8 °C 1006.7 hPa ENE 4.8 km/h 16.1 km/h 93% 0.76 mm 0.00 W/m2
23:19 2.8 °C 1.8 °C 1006.7 hPa ENE 4.8 km/h 12.9 km/h 93% 1.78 mm 0.00 W/m2
23:24 2.8 °C 1.8 °C 1006.7 hPa NE 6.4 km/h 16.1 km/h 93% 1.52 mm 0.00 W/m2
23:29 2.7 °C 1.7 °C 1006.7 hPa ENE 3.2 km/h 8 km/h 93% 0.76 mm 0.00 W/m2
23:34 2.7 °C 1.7 °C 1006.7 hPa ENE 4.8 km/h 16.1 km/h 93% 0 mm 0.00 W/m2
23:39 2.7 °C 1.7 °C 1006.7 hPa ENE 3.2 km/h 16.1 km/h 93% 0 mm 0.00 W/m2
23:44 2.6 °C 1.6 °C 1006.7 hPa ENE 4.8 km/h 8 km/h 93% 0 mm 0.00 W/m2
Compliments of Weather Underground - 4 mb